MSC Gina — 3FLY9 — position and weather

sailwx.info

Track history (hours):
 
Tides and Currents Weather Stations Pressure Air Temp Water Temp Dewpoint Dewpoint Depression Visibility Wind Speed Wind Dir Waves Ship Positions

MSC Gina

Last reported at 2016-Jun-30 21:33 UTC. Time now 2016-Jul-01 10:00 UTC.
Position N 39°58' E 000°05'.

Length 259 m; draft 10.4 m.

Type: Ship (hazmat cat A). MMSI: 357542000.

Date/timePositionNaut miles runAvg speedWind from/ knotsBaromVisibWave heightAir tempDewpointWater temp
2016-Jun-30 21:33N 39°58' E 000°05'0 0.1
2016-Jun-30 20:07N 39°58' E 000°05'3 0.4
2016-Jun-30 12:18N 39°59' E 000°08'1114.3
2016-Jun-30 11:33N 40°03' E 000°21'9 3.0
2016-Jun-30 08:33N 40°06' E 000°32'1010.4
2016-Jun-30 07:33N 40°14' E 000°40'1110.7
2016-Jun-30 06:32N 40°20' E 000°52'1313.2
2016-Jun-30 05:33N 40°28' E 001°06'1514.5
2016-Jun-30 04:33N 40°36' E 001°22'1514.8
2016-Jun-30 03:33N 40°45' E 001°38'1515.1
2016-Jun-30 02:33N 40°53' E 001°54'1515.4
2016-Jun-30 01:33N 41°02' E 002°11'1515.6
2016-Jun-30 00:33N 41°12' E 002°27'1515.4
2016-Jun-29 23:33N 41°21' E 002°43'1514.7
2016-Jun-29 22:33N 41°30' E 002°59'1413.7
2016-Jun-29 21:34N 41°40' E 003°11'1413.8
2016-Jun-29 20:33N 41°52' E 003°21'1414.2
2016-Jun-29 19:33N 42°02' E 003°35'1515.0
2016-Jun-29 18:33N 42°12' E 003°49'1515.0
2016-Jun-29 17:33N 42°23' E 004°03'1615.1
2016-Jun-29 16:31N 42°34' E 004°18'1915.0
2016-Jun-29 15:16N 42°47' E 004°37'1216.3
2016-Jun-29 14:33N 42°55' E 004°48'32 7.9
2016-Jun-29 10:26N 42°51' E 005°32'1512.4
2016-Jun-29 09:13N 42°48' E 005°52'812.4
2016-Jun-29 08:33N 42°46' E 006°03'3515.2
2016-Jun-29 06:15N 43°02' E 006°46'1318.5
2016-Jun-29 05:33N 43°10' E 006°60'1918.5
2016-Jun-29 04:33N 43°22' E 007°19'1818.3
2016-Jun-29 03:34N 43°33' E 007°39'1818.4
2016-Jun-29 02:33N 43°44' E 007°59'1818.4
2016-Jun-29 01:33N 43°56' E 008°19'1818.1
2016-Jun-29 00:33N 44°12' E 008°32'1616.3
2016-Jun-28 23:34N 44°25' E 008°45'2 1.5
2016-Jun-28 22:32N 44°25' E 008°47'0 0.0
2016-Jun-28 21:29N 44°25' E 008°47'0 0.0
2016-Jun-28 20:32N 44°25' E 008°47'0 0.0
2016-Jun-28 19:32N 44°25' E 008°47'0 0.0
2016-Jun-28 18:32N 44°25' E 008°47'0 0.0
2016-Jun-28 17:31N 44°25' E 008°47'0 0.0
2016-Jun-28 16:25N 44°25' E 008°47'0 0.0
2016-Jun-28 15:31N 44°25' E 008°47'0 0.0
2016-Jun-28 14:31N 44°25' E 008°47'0 0.0
2016-Jun-28 13:31N 44°25' E 008°47'0 0.0
2016-Jun-28 12:31N 44°25' E 008°47'0 0.0
2016-Jun-28 11:31N 44°25' E 008°47'0 0.0
2016-Jun-28 10:31N 44°25' E 008°47'0 0.0
2016-Jun-28 09:31N 44°25' E 008°47'0 0.0
2016-Jun-28 08:31N 44°25' E 008°47'0 0.0
2016-Jun-28 07:31N 44°25' E 008°47'0 0.2
2016-Jun-28 06:33N 44°25' E 008°47'15 7.3
2016-Jun-28 04:33N 44°12' E 008°56'1817.9
2016-Jun-28 03:33N 43°59' E 009°14'1717.4
2016-Jun-28 02:33N 43°47' E 009°32'1717.1
2016-Jun-28 01:33N 43°35' E 009°48'1616.2
2016-Jun-28 00:33N 43°30' E 010°09'8 7.8
2016-Jun-27 23:33N 43°34' E 010°18'0 0.0
2016-Jun-27 22:33N 43°34' E 010°18'0 0.0
2016-Jun-27 21:33N 43°34' E 010°18'0 0.0
2016-Jun-27 20:30N 43°34' E 010°18'0 0.0
2016-Jun-27 19:33N 43°34' E 010°18'0 0.0
2016-Jun-27 18:33N 43°34' E 010°18'0 0.0
2016-Jun-27 17:33N 43°34' E 010°18'0 0.0
2016-Jun-27 16:33N 43°34' E 010°18'0 0.0
2016-Jun-27 15:33N 43°34' E 010°18'0 0.0
2016-Jun-27 14:33N 43°34' E 010°18'0 0.0
2016-Jun-27 13:30N 43°34' E 010°18'0 0.0
2016-Jun-27 12:33N 43°34' E 010°18'0 0.0
2016-Jun-27 11:33N 43°34' E 010°18'0 0.0
2016-Jun-27 10:33N 43°34' E 010°18'0 0.0
2016-Jun-27 09:33N 43°34' E 010°18'0 0.0
2016-Jun-27 08:33N 43°34' E 010°18'0 0.0
2016-Jun-27 07:34N 43°34' E 010°18'2 1.6
2016-Jun-27 06:33N 43°33' E 010°17'3 3.2
2016-Jun-27 05:33N 43°30' E 010°18'0 0.0
2016-Jun-27 04:31N 43°30' E 010°18'0 0.1
2016-Jun-27 03:31N 43°30' E 010°18'0 0.0
2016-Jun-27 02:31N 43°30' E 010°18'0 0.0
2016-Jun-27 01:31N 43°30' E 010°18'0 0.1
2016-Jun-27 00:31N 43°30' E 010°18'0 0.0
2016-Jun-26 23:31N 43°30' E 010°18'0 0.1
2016-Jun-26 22:31N 43°30' E 010°18'0 0.0
2016-Jun-26 21:31N 43°30' E 010°18'0 0.0
2016-Jun-26 20:31N 43°30' E 010°18'0 0.0
2016-Jun-26 19:31N 43°30' E 010°18'0 0.0
2016-Jun-26 18:31N 43°30' E 010°18'0 0.1
2016-Jun-26 17:31N 43°30' E 010°18'0 0.1
2016-Jun-26 16:31N 43°30' E 010°18'0 0.0
2016-Jun-26 15:31N 43°30' E 010°18'0 0.2
2016-Jun-26 14:33N 43°30' E 010°17'5 4.9
2016-Jun-26 13:33N 43°28' E 010°11'1211.9
2016-Jun-26 12:33N 43°20' E 009°59'1212.2
2016-Jun-26 11:33N 43°12' E 009°47'1211.9
2016-Jun-26 10:33N 43°02' E 009°38'1211.8
2016-Jun-26 09:33N 42°51' E 009°45'1211.8
2016-Jun-26 08:33N 42°39' E 009°48'1411.8
2016-Jun-26 07:24N 42°26' E 009°54'1113.0
2016-Jun-26 06:34N 42°17' E 010°01'6512.3
2016-Jun-26 01:15N 41°35' E 011°08'811.4
2016-Jun-26 00:33N 41°30' E 011°16'1211.1
2016-Jun-25 23:28N 41°22' E 011°29'1310.9
2016-Jun-25 22:18N 41°14' E 011°42'2111.2
2016-Jun-25 20:23N 41°01' E 012°03'1011.6
2016-Jun-25 19:33N 40°54' E 012°13'1211.7
2016-Jun-25 18:33N 40°47' E 012°25'1211.8
2016-Jun-25 17:33N 40°39' E 012°37'1211.7
2016-Jun-25 16:33N 40°32' E 012°49'1311.5
2016-Jun-25 15:27N 40°24' E 013°02'1111.6
2016-Jun-25 14:30N 40°17' E 013°13'1111.9
2016-Jun-25 13:34N 40°10' E 013°24'1212.2
2016-Jun-25 12:34N 40°02' E 013°36'1612.3
2016-Jun-25 11:18N 39°52' E 013°52'1412.2
2016-Jun-25 10:12N 39°43' E 014°05'5614.6
2016-Jun-25 06:22N 39°08' E 015°01'2312.1
2016-Jun-25 04:30N 38°53' E 015°23'1212.2
2016-Jun-25 03:32N 38°44' E 015°33'1212.5
2016-Jun-25 02:33N 38°35' E 015°44'1111.1
2016-Jun-25 01:33N 38°27' E 015°53'2 1.4
2016-Jun-25 00:29N 38°28' E 015°55'0 0.0
2016-Jun-24 23:29N 38°28' E 015°55'0 0.0
2016-Jun-24 22:32N 38°28' E 015°55'0 0.0
2016-Jun-24 21:32N 38°28' E 015°55'0 0.0
2016-Jun-24 20:32N 38°28' E 015°55'0 0.0
2016-Jun-24 19:32N 38°28' E 015°55'0 0.0
2016-Jun-24 18:29N 38°28' E 015°55'0 0.0
2016-Jun-24 17:29N 38°28' E 015°55'0 0.0
2016-Jun-24 16:32N 38°28' E 015°55'0 0.0
2016-Jun-24 15:29N 38°28' E 015°55'0 0.0
2016-Jun-24 14:29N 38°28' E 015°55'0 0.0
2016-Jun-24 13:29N 38°28' E 015°55'0 0.0
2016-Jun-24 12:26N 38°28' E 015°55'0 0.0
2016-Jun-24 11:32N 38°28' E 015°55'0 0.0
2016-Jun-24 10:32N 38°28' E 015°55'0 0.0
2016-Jun-24 09:32N 38°28' E 015°55'0 0.0
2016-Jun-24 08:29N 38°28' E 015°55'0 0.0
2016-Jun-24 07:32N 38°28' E 015°55'0 0.0
2016-Jun-24 04:32N 38°28' E 015°55'0 0.1
2016-Jun-24 03:32N 38°28' E 015°55'4 4.2
2016-Jun-24 02:33N 38°26' E 015°50'8 8.1
2016-Jun-24 01:34N 38°24' E 015°40'1211.9
2016-Jun-24 00:34N 38°21' E 015°25'1212.0
2016-Jun-23 23:34N 38°18' E 015°10'1212.1
2016-Jun-23 22:34N 38°15' E 014°55'1212.5
2016-Jun-23 21:34N 38°16' E 014°39'1212.3
2016-Jun-23 20:33N 38°16' E 014°24'1212.2
2016-Jun-23 19:32N 38°17' E 014°08'1211.9
2016-Jun-23 18:34N 38°17' E 013°53'1211.8
2016-Jun-23 17:34N 38°18' E 013°38'1212.1
2016-Jun-23 16:34N 38°19' E 013°23'1212.2
2016-Jun-23 15:33N 38°20' E 013°07'1211.8
2016-Jun-23 14:34N 38°20' E 012°52'1211.6
2016-Jun-23 13:33N 38°21' E 012°37'1511.5
2016-Jun-23 12:16N 38°17' E 012°19'2411.9
2016-Jun-23 10:17N 38°13' E 011°49'5611.8
2016-Jun-23 05:31N 38°03' E 010°39'1010.6
2016-Jun-23 04:32N 38°01' E 010°26'1110.8
2016-Jun-23 03:33N 37°59' E 010°12'4911.3
2016-Jun-22 23:11N 37°52' E 009°11'17311.8
2016-Jun-22 08:32N 37°22' E 005°36'1111.6
2016-Jun-22 07:33N 37°20' E 005°21'6012.0
2016-Jun-22 02:32N 37°11' E 004°07'6411.9
2016-Jun-21 21:09N 36°60' E 002°47'711.8
2016-Jun-21 20:32N 36°59' E 002°39'3611.8
2016-Jun-21 17:29N 36°53' E 001°54'1112.2
2016-Jun-21 16:33N 36°51' E 001°40'3612.1
2016-Jun-21 13:32N 36°46' E 000°55'5811.6
2016-Jun-21 08:33N 36°36' W 000°16'1512.3
2016-Jun-21 07:18N 36°34' W 000°35'3211.8
2016-Jun-21 04:33N 36°28' W 001°15'1212.0
2016-Jun-21 03:33N 36°26' W 001°30'2412.1
2016-Jun-21 01:34N 36°22' W 001°59'1512.0
2016-Jun-21 00:18N 36°20' W 002°18'912.0
2016-Jun-20 23:34N 36°18' W 002°28'1211.8
2016-Jun-20 22:33N 36°16' W 002°43'1211.9
2016-Jun-20 21:33N 36°16' W 002°58'  
Track history (hours):
 
Tides and Currents Weather Stations Pressure Air Temp Water Temp Dewpoint Dewpoint Depression Visibility Wind Speed Wind Dir Waves Ship Positions

MSC Gina

Last reported at 2016-Jun-30 21:33 UTC. Time now 2016-Jul-01 10:00 UTC.
Position N 39°58' E 000°05'.

Length 259 m; draft 10.4 m.

Type: Ship (hazmat cat A). MMSI: 357542000.

Date/timePositionNaut miles runAvg speedWind from/ knotsBaromVisibWave heightAir tempDewpointWater temp
2016-Jun-30 21:33N 39°58' E 000°05'0 0.1
2016-Jun-30 20:07N 39°58' E 000°05'3 0.4
2016-Jun-30 12:18N 39°59' E 000°08'1114.3
2016-Jun-30 11:33N 40°03' E 000°21'9 3.0
2016-Jun-30 08:33N 40°06' E 000°32'1010.4
2016-Jun-30 07:33N 40°14' E 000°40'1110.7
2016-Jun-30 06:32N 40°20' E 000°52'1313.2
2016-Jun-30 05:33N 40°28' E 001°06'1514.5
2016-Jun-30 04:33N 40°36' E 001°22'1514.8
2016-Jun-30 03:33N 40°45' E 001°38'1515.1
2016-Jun-30 02:33N 40°53' E 001°54'1515.4
2016-Jun-30 01:33N 41°02' E 002°11'1515.6
2016-Jun-30 00:33N 41°12' E 002°27'1515.4
2016-Jun-29 23:33N 41°21' E 002°43'1514.7
2016-Jun-29 22:33N 41°30' E 002°59'1413.7
2016-Jun-29 21:34N 41°40' E 003°11'1413.8
2016-Jun-29 20:33N 41°52' E 003°21'1414.2
2016-Jun-29 19:33N 42°02' E 003°35'1515.0
2016-Jun-29 18:33N 42°12' E 003°49'1515.0
2016-Jun-29 17:33N 42°23' E 004°03'1615.1
2016-Jun-29 16:31N 42°34' E 004°18'1915.0
2016-Jun-29 15:16N 42°47' E 004°37'1216.3
2016-Jun-29 14:33N 42°55' E 004°48'32 7.9
2016-Jun-29 10:26N 42°51' E 005°32'1512.4
2016-Jun-29 09:13N 42°48' E 005°52'812.4
2016-Jun-29 08:33N 42°46' E 006°03'3515.2
2016-Jun-29 06:15N 43°02' E 006°46'1318.5
2016-Jun-29 05:33N 43°10' E 006°60'1918.5
2016-Jun-29 04:33N 43°22' E 007°19'1818.3
2016-Jun-29 03:34N 43°33' E 007°39'1818.4
2016-Jun-29 02:33N 43°44' E 007°59'1818.4
2016-Jun-29 01:33N 43°56' E 008°19'1818.1
2016-Jun-29 00:33N 44°12' E 008°32'1616.3
2016-Jun-28 23:34N 44°25' E 008°45'2 1.5
2016-Jun-28 22:32N 44°25' E 008°47'0 0.0
2016-Jun-28 21:29N 44°25' E 008°47'0 0.0
2016-Jun-28 20:32N 44°25' E 008°47'0 0.0
2016-Jun-28 19:32N 44°25' E 008°47'0 0.0
2016-Jun-28 18:32N 44°25' E 008°47'0 0.0
2016-Jun-28 17:31N 44°25' E 008°47'0 0.0
2016-Jun-28 16:25N 44°25' E 008°47'0 0.0
2016-Jun-28 15:31N 44°25' E 008°47'0 0.0
2016-Jun-28 14:31N 44°25' E 008°47'0 0.0
2016-Jun-28 13:31N 44°25' E 008°47'0 0.0
2016-Jun-28 12:31N 44°25' E 008°47'0 0.0
2016-Jun-28 11:31N 44°25' E 008°47'0 0.0
2016-Jun-28 10:31N 44°25' E 008°47'0 0.0
2016-Jun-28 09:31N 44°25' E 008°47'0 0.0
2016-Jun-28 08:31N 44°25' E 008°47'0 0.0
2016-Jun-28 07:31N 44°25' E 008°47'0 0.2
2016-Jun-28 06:33N 44°25' E 008°47'15 7.3
2016-Jun-28 04:33N 44°12' E 008°56'1817.9
2016-Jun-28 03:33N 43°59' E 009°14'1717.4
2016-Jun-28 02:33N 43°47' E 009°32'1717.1
2016-Jun-28 01:33N 43°35' E 009°48'1616.2
2016-Jun-28 00:33N 43°30' E 010°09'8 7.8
2016-Jun-27 23:33N 43°34' E 010°18'0 0.0
2016-Jun-27 22:33N 43°34' E 010°18'0 0.0
2016-Jun-27 21:33N 43°34' E 010°18'0 0.0
2016-Jun-27 20:30N 43°34' E 010°18'0 0.0
2016-Jun-27 19:33N 43°34' E 010°18'0 0.0
2016-Jun-27 18:33N 43°34' E 010°18'0 0.0
2016-Jun-27 17:33N 43°34' E 010°18'0 0.0
2016-Jun-27 16:33N 43°34' E 010°18'0 0.0
2016-Jun-27 15:33N 43°34' E 010°18'0 0.0
2016-Jun-27 14:33N 43°34' E 010°18'0 0.0
2016-Jun-27 13:30N 43°34' E 010°18'0 0.0
2016-Jun-27 12:33N 43°34' E 010°18'0 0.0
2016-Jun-27 11:33N 43°34' E 010°18'0 0.0
2016-Jun-27 10:33N 43°34' E 010°18'0 0.0
2016-Jun-27 09:33N 43°34' E 010°18'0 0.0
2016-Jun-27 08:33N 43°34' E 010°18'0 0.0
2016-Jun-27 07:34N 43°34' E 010°18'2 1.6
2016-Jun-27 06:33N 43°33' E 010°17'3 3.2
2016-Jun-27 05:33N 43°30' E 010°18'0 0.0
2016-Jun-27 04:31N 43°30' E 010°18'0 0.1
2016-Jun-27 03:31N 43°30' E 010°18'0 0.0
2016-Jun-27 02:31N 43°30' E 010°18'0 0.0
2016-Jun-27 01:31N 43°30' E 010°18'0 0.1
2016-Jun-27 00:31N 43°30' E 010°18'0 0.0
2016-Jun-26 23:31N 43°30' E 010°18'0 0.1
2016-Jun-26 22:31N 43°30' E 010°18'0 0.0
2016-Jun-26 21:31N 43°30' E 010°18'0 0.0
2016-Jun-26 20:31N 43°30' E 010°18'0 0.0
2016-Jun-26 19:31N 43°30' E 010°18'0 0.0
2016-Jun-26 18:31N 43°30' E 010°18'0 0.1
2016-Jun-26 17:31N 43°30' E 010°18'0 0.1
2016-Jun-26 16:31N 43°30' E 010°18'0 0.0
2016-Jun-26 15:31N 43°30' E 010°18'0 0.2
2016-Jun-26 14:33N 43°30' E 010°17'5 4.9
2016-Jun-26 13:33N 43°28' E 010°11'1211.9
2016-Jun-26 12:33N 43°20' E 009°59'1212.2
2016-Jun-26 11:33N 43°12' E 009°47'1211.9
2016-Jun-26 10:33N 43°02' E 009°38'1211.8
2016-Jun-26 09:33N 42°51' E 009°45'1211.8
2016-Jun-26 08:33N 42°39' E 009°48'1411.8
2016-Jun-26 07:24N 42°26' E 009°54'1113.0
2016-Jun-26 06:34N 42°17' E 010°01'6512.3
2016-Jun-26 01:15N 41°35' E 011°08'811.4
2016-Jun-26 00:33N 41°30' E 011°16'1211.1
2016-Jun-25 23:28N 41°22' E 011°29'1310.9
2016-Jun-25 22:18N 41°14' E 011°42'2111.2
2016-Jun-25 20:23N 41°01' E 012°03'1011.6
2016-Jun-25 19:33N 40°54' E 012°13'1211.7
2016-Jun-25 18:33N 40°47' E 012°25'1211.8
2016-Jun-25 17:33N 40°39' E 012°37'1211.7
2016-Jun-25 16:33N 40°32' E 012°49'1311.5
2016-Jun-25 15:27N 40°24' E 013°02'1111.6
2016-Jun-25 14:30N 40°17' E 013°13'1111.9
2016-Jun-25 13:34N 40°10' E 013°24'1212.2
2016-Jun-25 12:34N 40°02' E 013°36'1612.3
2016-Jun-25 11:18N 39°52' E 013°52'1412.2
2016-Jun-25 10:12N 39°43' E 014°05'5614.6
2016-Jun-25 06:22N 39°08' E 015°01'2312.1
2016-Jun-25 04:30N 38°53' E 015°23'1212.2
2016-Jun-25 03:32N 38°44' E 015°33'1212.5
2016-Jun-25 02:33N 38°35' E 015°44'1111.1
2016-Jun-25 01:33N 38°27' E 015°53'2 1.4
2016-Jun-25 00:29N 38°28' E 015°55'0 0.0
2016-Jun-24 23:29N 38°28' E 015°55'0 0.0
2016-Jun-24 22:32N 38°28' E 015°55'0 0.0
2016-Jun-24 21:32N 38°28' E 015°55'0 0.0
2016-Jun-24 20:32N 38°28' E 015°55'0 0.0
2016-Jun-24 19:32N 38°28' E 015°55'0 0.0
2016-Jun-24 18:29N 38°28' E 015°55'0 0.0
2016-Jun-24 17:29N 38°28' E 015°55'0 0.0
2016-Jun-24 16:32N 38°28' E 015°55'0 0.0
2016-Jun-24 15:29N 38°28' E 015°55'0 0.0
2016-Jun-24 14:29N 38°28' E 015°55'0 0.0
2016-Jun-24 13:29N 38°28' E 015°55'0 0.0
2016-Jun-24 12:26N 38°28' E 015°55'0 0.0
2016-Jun-24 11:32N 38°28' E 015°55'0 0.0
2016-Jun-24 10:32N 38°28' E 015°55'0 0.0
2016-Jun-24 09:32N 38°28' E 015°55'0 0.0
2016-Jun-24 08:29N 38°28' E 015°55'0 0.0
2016-Jun-24 07:32N 38°28' E 015°55'0 0.0
2016-Jun-24 04:32N 38°28' E 015°55'0 0.1
2016-Jun-24 03:32N 38°28' E 015°55'4 4.2
2016-Jun-24 02:33N 38°26' E 015°50'8 8.1
2016-Jun-24 01:34N 38°24' E 015°40'1211.9
2016-Jun-24 00:34N 38°21' E 015°25'1212.0
2016-Jun-23 23:34N 38°18' E 015°10'1212.1
2016-Jun-23 22:34N 38°15' E 014°55'1212.5
2016-Jun-23 21:34N 38°16' E 014°39'1212.3
2016-Jun-23 20:33N 38°16' E 014°24'1212.2
2016-Jun-23 19:32N 38°17' E 014°08'1211.9
2016-Jun-23 18:34N 38°17' E 013°53'1211.8
2016-Jun-23 17:34N 38°18' E 013°38'1212.1
2016-Jun-23 16:34N 38°19' E 013°23'1212.2
2016-Jun-23 15:33N 38°20' E 013°07'1211.8
2016-Jun-23 14:34N 38°20' E 012°52'1211.6
2016-Jun-23 13:33N 38°21' E 012°37'1511.5
2016-Jun-23 12:16N 38°17' E 012°19'2411.9
2016-Jun-23 10:17N 38°13' E 011°49'5611.8
2016-Jun-23 05:31N 38°03' E 010°39'1010.6
2016-Jun-23 04:32N 38°01' E 010°26'1110.8
2016-Jun-23 03:33N 37°59' E 010°12'4911.3
2016-Jun-22 23:11N 37°52' E 009°11'17311.8
2016-Jun-22 08:32N 37°22' E 005°36'1111.6
2016-Jun-22 07:33N 37°20' E 005°21'6012.0
2016-Jun-22 02:32N 37°11' E 004°07'6411.9
2016-Jun-21 21:09N 36°60' E 002°47'711.8
2016-Jun-21 20:32N 36°59' E 002°39'3611.8
2016-Jun-21 17:29N 36°53' E 001°54'1112.2
2016-Jun-21 16:33N 36°51' E 001°40'3612.1
2016-Jun-21 13:32N 36°46' E 000°55'5811.6
2016-Jun-21 08:33N 36°36' W 000°16'1512.3
2016-Jun-21 07:18N 36°34' W 000°35'3211.8
2016-Jun-21 04:33N 36°28' W 001°15'1212.0
2016-Jun-21 03:33N 36°26' W 001°30'2412.1
2016-Jun-21 01:34N 36°22' W 001°59'1512.0
2016-Jun-21 00:18N 36°20' W 002°18'912.0
2016-Jun-20 23:34N 36°18' W 002°28'1211.8
2016-Jun-20 22:33N 36°16' W 002°43'1211.9
2016-Jun-20 21:33N 36°16' W 002°58'  

Dump ship's entire track history